DAAD

Bou Saada Airport

Algeria
METAR DAAD 201800Z 11008KT 9999 FEW030 23/11 Q1017
Observed Flight Rules
Apr-20 @ 18:00 UTC (39 minutes ago) Visual Flight Rules
Wind Visibility Clouds
110° at 8 knots 10,000+ meters
  • Few at 3,000' AGL
Temperatures Readings
Current 23°C / 73°F
Dewpoint 11°C / 52°F
Humidity 47%
Altimeter 30.03" Hg
Pressure 1017 hPa
Elevation 461
METAR DAAD 201800Z 11008KT 9999 FEW030 23/11 Q1017
Observed Flight Rules
Apr-20 @ 18:00 UTC
(39 minutes ago)
VFR
Wind Visibility
110° at 8 knots 10,000+ meters
Clouds
  • Few at 3,000' AGL
Temperature Dewpoint
23°C / 73°F 11°C / 52°F
Humidity Altimeter Pressure
47% 30.03" Hg 1017 hPa